sensor_id;sensor_type;location;lat;lon;timestamp;pressure;altitude;pressure_sealevel;temperature;humidity
11542;BME280;5827;49.482;7.716;2022-08-11T00:01:54;99321.03;;;18.52;55.72
11542;BME280;5827;49.482;7.716;2022-08-11T00:04:01;99321.66;;;18.39;55.23
11542;BME280;5827;49.482;7.716;2022-08-11T00:06:04;99323.84;;;18.42;55.72
11542;BME280;5827;49.482;7.716;2022-08-11T00:08:05;99321.72;;;18.34;55.80
11542;BME280;5827;49.482;7.716;2022-08-11T00:10:09;99327.69;;;18.31;56.21
11542;BME280;5827;49.482;7.716;2022-08-11T00:12:14;99314.94;;;18.31;57.10
11542;BME280;5827;49.482;7.716;2022-08-11T00:14:17;99320.34;;;18.31;57.23
11542;BME280;5827;49.482;7.716;2022-08-11T00:16:22;99323.91;;;18.26;57.08
11542;BME280;5827;49.482;7.716;2022-08-11T00:18:25;99320.41;;;18.21;56.91
11542;BME280;5827;49.482;7.716;2022-08-11T00:20:29;99323.41;;;18.19;57.03
11542;BME280;5827;49.482;7.716;2022-08-11T00:22:32;99311.72;;;18.19;56.88
11542;BME280;5827;49.482;7.716;2022-08-11T00:24:37;99312.31;;;18.16;57.10
11542;BME280;5827;49.482;7.716;2022-08-11T00:26:39;99307.72;;;18.11;57.89
11542;BME280;5827;49.482;7.716;2022-08-11T00:28:41;99309.41;;;18.02;58.73
11542;BME280;5827;49.482;7.716;2022-08-11T00:30:43;99311.88;;;17.93;58.75
11542;BME280;5827;49.482;7.716;2022-08-11T00:32:55;99305.69;;;17.88;59.22
11542;BME280;5827;49.482;7.716;2022-08-11T00:35:00;99309.22;;;17.83;59.04
11542;BME280;5827;49.482;7.716;2022-08-11T00:37:05;99313.28;;;17.81;59.20
11542;BME280;5827;49.482;7.716;2022-08-11T00:39:09;99317.88;;;17.85;58.81
11542;BME280;5827;49.482;7.716;2022-08-11T00:41:28;99317.88;;;17.85;58.73
11542;BME280;5827;49.482;7.716;2022-08-11T00:43:58;99317.34;;;17.83;58.34
11542;BME280;5827;49.482;7.716;2022-08-11T00:46:16;99310.84;;;17.79;58.32
11542;BME280;5827;49.482;7.716;2022-08-11T00:48:25;99310.84;;;17.79;58.21
11542;BME280;5827;49.482;7.716;2022-08-11T00:50:39;99320.03;;;17.73;58.27
11542;BME280;5827;49.482;7.716;2022-08-11T00:53:13;99321.97;;;17.67;58.89
11542;BME280;5827;49.482;7.716;2022-08-11T00:55:41;99317.63;;;17.66;58.74
11542;BME280;5827;49.482;7.716;2022-08-11T00:58:26;99320.09;;;17.63;58.79
11542;BME280;5827;49.482;7.716;2022-08-11T01:00:32;99319.56;;;17.61;58.97
11542;BME280;5827;49.482;7.716;2022-08-11T01:02:44;99319.81;;;17.59;59.02
11542;BME280;5827;49.482;7.716;2022-08-11T01:05:11;99309.56;;;17.56;58.85
11542;BME280;5827;49.482;7.716;2022-08-11T01:07:51;99321.47;;;17.55;58.89
11542;BME280;5827;49.482;7.716;2022-08-11T01:10:33;99314.72;;;17.52;58.96
11542;BME280;5827;49.482;7.716;2022-08-11T01:12:48;99318.78;;;17.45;59.17
11542;BME280;5827;49.482;7.716;2022-08-11T01:18:24;99319.59;;;17.45;58.96
11542;BME280;5827;49.482;7.716;2022-08-11T01:26:08;99319.59;;;17.40;59.10
11542;BME280;5827;49.482;7.716;2022-08-11T01:28:48;99319.09;;;17.33;58.99
11542;BME280;5827;49.482;7.716;2022-08-11T01:31:24;99316.63;;;17.32;59.66
11542;BME280;5827;49.482;7.716;2022-08-11T01:34:01;99310.69;;;17.30;60.44
11542;BME280;5827;49.482;7.716;2022-08-11T01:36:40;99315.31;;;17.29;60.73
11542;BME280;5827;49.482;7.716;2022-08-11T01:39:12;99317.22;;;17.23;61.22
11542;BME280;5827;49.482;7.716;2022-08-11T01:41:26;99319.66;;;17.20;60.99
11542;BME280;5827;49.482;7.716;2022-08-11T01:44:33;99319.66;;;17.20;60.73
11542;BME280;5827;49.482;7.716;2022-08-11T01:46:43;99316.94;;;17.20;60.36
11542;BME280;5827;49.482;7.716;2022-08-11T01:48:56;99329.41;;;17.21;60.95
11542;BME280;5827;49.482;7.716;2022-08-11T01:51:10;99324.28;;;17.14;60.87
11542;BME280;5827;49.482;7.716;2022-08-11T01:53:27;99321.81;;;17.13;61.25
11542;BME280;5827;49.482;7.716;2022-08-11T01:55:33;99323.44;;;17.09;61.24
11542;BME280;5827;49.482;7.716;2022-08-11T01:57:43;99320.50;;;17.05;61.44
11542;BME280;5827;49.482;7.716;2022-08-11T01:59:50;99321.28;;;17.06;61.64
11542;BME280;5827;49.482;7.716;2022-08-11T02:02:22;99321.28;;;17.06;62.07
11542;BME280;5827;49.482;7.716;2022-08-11T02:04:52;99321.56;;;16.99;61.84
11542;BME280;5827;49.482;7.716;2022-08-11T02:07:07;99320.75;;;16.98;62.26
11542;BME280;5827;49.482;7.716;2022-08-11T02:09:19;99320.22;;;17.01;61.78
11542;BME280;5827;49.482;7.716;2022-08-11T02:11:29;99324.03;;;16.95;61.47
11542;BME280;5827;49.482;7.716;2022-08-11T02:13:39;99325.88;;;16.95;61.75
11542;BME280;5827;49.482;7.716;2022-08-11T02:15:45;99321.03;;;16.92;62.10
11542;BME280;5827;49.482;7.716;2022-08-11T02:17:58;99321.03;;;16.87;62.18
11542;BME280;5827;49.482;7.716;2022-08-11T02:20:06;99320.75;;;16.83;62.46
11542;BME280;5827;49.482;7.716;2022-08-11T02:22:31;99319.41;;;16.81;62.53
11542;BME280;5827;49.482;7.716;2022-08-11T02:24:59;99321.28;;;16.75;62.36
11542;BME280;5827;49.482;7.716;2022-08-11T02:27:05;99312.38;;;16.74;62.41
11542;BME280;5827;49.482;7.716;2022-08-11T02:29:15;99324.28;;;16.73;62.98
11542;BME280;5827;49.482;7.716;2022-08-11T02:31:24;99320.47;;;16.74;62.58
11542;BME280;5827;49.482;7.716;2022-08-11T02:33:47;99312.38;;;16.74;63.08
11542;BME280;5827;49.482;7.716;2022-08-11T02:35:58;99316.13;;;16.68;62.97
11542;BME280;5827;49.482;7.716;2022-08-11T02:38:13;99317.75;;;16.64;63.06
11542;BME280;5827;49.482;7.716;2022-08-11T02:40:23;99309.34;;;16.61;63.64
11542;BME280;5827;49.482;7.716;2022-08-11T02:42:30;99303.13;;;16.55;64.57
11542;BME280;5827;49.482;7.716;2022-08-11T02:44:46;99316.09;;;16.53;64.39
11542;BME280;5827;49.482;7.716;2022-08-11T02:46:57;99313.13;;;16.55;64.56
11542;BME280;5827;49.482;7.716;2022-08-11T02:49:10;99316.66;;;16.55;64.98
11542;BME280;5827;49.482;7.716;2022-08-11T02:51:38;99315.56;;;16.51;64.56
11542;BME280;5827;49.482;7.716;2022-08-11T02:53:46;99315.84;;;16.49;64.53
11542;BME280;5827;49.482;7.716;2022-08-11T02:55:58;99313.94;;;16.45;65.01
11542;BME280;5827;49.482;7.716;2022-08-11T02:58:11;99316.34;;;16.31;64.28
11542;BME280;5827;49.482;7.716;2022-08-11T03:00:16;99315.50;;;16.31;65.25
11542;BME280;5827;49.482;7.716;2022-08-11T03:02:42;99318.78;;;16.33;64.73
11542;BME280;5827;49.482;7.716;2022-08-11T03:04:57;99318.25;;;16.41;64.10
11542;BME280;5827;49.482;7.716;2022-08-11T03:07:07;99325.00;;;16.33;65.48
11542;BME280;5827;49.482;7.716;2022-08-11T03:09:18;99329.03;;;16.31;65.46
11542;BME280;5827;49.482;7.716;2022-08-11T03:11:41;99325.00;;;16.28;65.51
11542;BME280;5827;49.482;7.716;2022-08-11T03:14:13;99328.22;;;16.30;65.62
11542;BME280;5827;49.482;7.716;2022-08-11T03:16:47;99316.06;;;16.27;65.71
11542;BME280;5827;49.482;7.716;2022-08-11T03:18:58;99320.66;;;16.27;65.44
11542;BME280;5827;49.482;7.716;2022-08-11T03:21:06;99313.38;;;16.33;65.43
11542;BME280;5827;49.482;7.716;2022-08-11T03:23:17;99322.00;;;16.30;65.54
11542;BME280;5827;49.482;7.716;2022-08-11T03:25:29;99319.06;;;16.31;65.74
11542;BME280;5827;49.482;7.716;2022-08-11T03:27:57;99312.28;;;16.29;65.85
11542;BME280;5827;49.482;7.716;2022-08-11T03:30:09;99312.56;;;16.32;65.77
11542;BME280;5827;49.482;7.716;2022-08-11T03:32:28;99316.59;;;16.30;66.64
11542;BME280;5827;49.482;7.716;2022-08-11T03:34:32;99320.91;;;16.25;65.74
11542;BME280;5827;49.482;7.716;2022-08-11T03:39:46;99318.75;;;16.17;65.60
11542;BME280;5827;49.482;7.716;2022-08-11T03:41:56;99316.59;;;16.19;66.30
11542;BME280;5827;49.482;7.716;2022-08-11T03:44:17;99316.59;;;16.19;65.91
11542;BME280;5827;49.482;7.716;2022-08-11T03:46:27;99314.69;;;16.20;66.06
11542;BME280;5827;49.482;7.716;2022-08-11T03:48:41;99314.16;;;16.13;66.01
11542;BME280;5827;49.482;7.716;2022-08-11T03:50:54;99317.91;;;16.12;66.40
11542;BME280;5827;49.482;7.716;2022-08-11T03:53:11;99315.75;;;16.04;67.22
11542;BME280;5827;49.482;7.716;2022-08-11T03:55:26;99312.19;;;15.98;67.20
11542;BME280;5827;49.482;7.716;2022-08-11T04:00:18;99315.16;;;15.91;67.08
11542;BME280;5827;49.482;7.716;2022-08-11T04:05:43;99314.34;;;15.96;66.87
11542;BME280;5827;49.482;7.716;2022-08-11T04:08:13;99324.59;;;15.94;67.01
11542;BME280;5827;49.482;7.716;2022-08-11T04:10:40;99313.25;;;15.92;66.79
11542;BME280;5827;49.482;7.716;2022-08-11T04:13:12;99317.28;;;15.89;67.15
11542;BME280;5827;49.482;7.716;2022-08-11T04:15:46;99319.44;;;15.87;67.78
11542;BME280;5827;49.482;7.716;2022-08-11T04:18:49;99316.75;;;15.87;67.43
11542;BME280;5827;49.482;7.716;2022-08-11T04:21:04;99320.25;;;15.88;67.21
11542;BME280;5827;49.482;7.716;2022-08-11T04:23:23;99318.63;;;15.82;67.68
11542;BME280;5827;49.482;7.716;2022-08-11T04:25:34;99314.03;;;15.82;67.74
11542;BME280;5827;49.482;7.716;2022-08-11T04:28:18;99309.97;;;15.85;67.67
11542;BME280;5827;49.482;7.716;2022-08-11T04:30:27;99309.16;;;15.84;67.94
11542;BME280;5827;49.482;7.716;2022-08-11T04:35:11;99315.41;;;15.90;69.10
11542;BME280;5827;49.482;7.716;2022-08-11T04:37:35;99314.06;;;15.87;68.83
11542;BME280;5827;49.482;7.716;2022-08-11T04:40:08;99319.19;;;15.89;67.80
11542;BME280;5827;49.482;7.716;2022-08-11T04:42:47;99312.97;;;15.93;68.56
11542;BME280;5827;49.482;7.716;2022-08-11T04:45:44;99319.47;;;15.97;67.55
11542;BME280;5827;49.482;7.716;2022-08-11T04:48:25;99318.16;;;16.05;67.98
11542;BME280;5827;49.482;7.716;2022-08-11T04:51:20;99316.31;;;16.26;67.42
11542;BME280;5827;49.482;7.716;2022-08-11T04:53:51;99326.16;;;16.68;66.49
11542;BME280;5827;49.482;7.716;2022-08-11T04:56:16;99338.34;;;17.01;64.78
11542;BME280;5827;49.482;7.716;2022-08-11T04:58:48;99330.19;;;17.42;63.66
11542;BME280;5827;49.482;7.716;2022-08-11T05:01:22;99330.09;;;17.77;62.72
11542;BME280;5827;49.482;7.716;2022-08-11T05:04:02;99348.72;;;17.99;60.93
11542;BME280;5827;49.482;7.716;2022-08-11T05:06:47;99350.22;;;18.26;59.79
11542;BME280;5827;49.482;7.716;2022-08-11T05:09:15;99347.94;;;18.48;59.80
11542;BME280;5827;49.482;7.716;2022-08-11T05:11:43;99353.22;;;18.74;58.17
11542;BME280;5827;49.482;7.716;2022-08-11T05:14:03;99347.88;;;18.98;58.08
11542;BME280;5827;49.482;7.716;2022-08-11T05:16:42;99358.81;;;19.22;57.39
11542;BME280;5827;49.482;7.716;2022-08-11T05:19:14;99358.34;;;19.44;56.68
11542;BME280;5827;49.482;7.716;2022-08-11T05:21:35;99358.91;;;19.41;56.46
11542;BME280;5827;49.482;7.716;2022-08-11T05:23:56;99349.97;;;19.64;57.51
11542;BME280;5827;49.482;7.716;2022-08-11T05:26:18;99348.09;;;19.89;56.31
11542;BME280;5827;49.482;7.716;2022-08-11T05:28:41;99358.53;;;20.00;54.95
11542;BME280;5827;49.482;7.716;2022-08-11T05:31:03;99362.16;;;20.15;54.32
11542;BME280;5827;49.482;7.716;2022-08-11T05:33:32;99364.81;;;20.20;55.29
11542;BME280;5827;49.482;7.716;2022-08-11T05:36:02;99365.34;;;20.22;55.24
11542;BME280;5827;49.482;7.716;2022-08-11T05:38:09;99368.00;;;20.27;54.68
11542;BME280;5827;49.482;7.716;2022-08-11T05:40:30;99366.72;;;20.19;53.98
11542;BME280;5827;49.482;7.716;2022-08-11T05:42:55;99369.41;;;20.43;54.17
11542;BME280;5827;49.482;7.716;2022-08-11T05:45:17;99369.41;;;20.43;54.32
11542;BME280;5827;49.482;7.716;2022-08-11T05:47:36;99378.13;;;20.64;53.30
11542;BME280;5827;49.482;7.716;2022-08-11T05:49:55;99370.03;;;20.78;53.22
11542;BME280;5827;49.482;7.716;2022-08-11T05:52:20;99368.63;;;20.99;54.26
11542;BME280;5827;49.482;7.716;2022-08-11T05:54:40;99371.63;;;20.98;54.82
11542;BME280;5827;49.482;7.716;2022-08-11T05:57:01;99377.69;;;21.27;53.23
11542;BME280;5827;49.482;7.716;2022-08-11T05:59:03;99388.34;;;21.43;52.61
11542;BME280;5827;49.482;7.716;2022-08-11T06:01:05;99380.84;;;21.67;52.63
11542;BME280;5827;49.482;7.716;2022-08-11T06:03:07;99386.69;;;21.88;51.52
11542;BME280;5827;49.482;7.716;2022-08-11T06:05:11;99385.19;;;22.10;51.08
11542;BME280;5827;49.482;7.716;2022-08-11T06:07:13;99390.13;;;22.21;50.72
11542;BME280;5827;49.482;7.716;2022-08-11T06:09:24;99388.59;;;22.43;50.17
11542;BME280;5827;49.482;7.716;2022-08-11T06:11:27;99402.06;;;22.75;50.05
11542;BME280;5827;49.482;7.716;2022-08-11T06:13:32;99402.50;;;23.27;49.27
11542;BME280;5827;49.482;7.716;2022-08-11T06:15:43;99400.81;;;23.40;49.19
11542;BME280;5827;49.482;7.716;2022-08-11T06:17:45;99400.50;;;23.64;48.46
11542;BME280;5827;49.482;7.716;2022-08-11T06:19:51;99401.91;;;23.93;48.36
11542;BME280;5827;49.482;7.716;2022-08-11T06:22:01;99407.94;;;24.12;47.18
11542;BME280;5827;49.482;7.716;2022-08-11T06:24:04;99410.97;;;24.59;47.50
11542;BME280;5827;49.482;7.716;2022-08-11T06:26:13;99415.81;;;24.97;47.26
11542;BME280;5827;49.482;7.716;2022-08-11T06:28:16;99412.78;;;25.16;46.88
11542;BME280;5827;49.482;7.716;2022-08-11T06:30:32;99414.41;;;25.17;46.30
11542;BME280;5827;49.482;7.716;2022-08-11T06:32:34;99428.28;;;25.12;45.31
11542;BME280;5827;49.482;7.716;2022-08-11T06:34:45;99414.03;;;25.53;44.93
11542;BME280;5827;49.482;7.716;2022-08-11T06:36:56;99416.41;;;25.63;43.99
11542;BME280;5827;49.482;7.716;2022-08-11T06:39:12;99419.81;;;26.07;44.30
11542;BME280;5827;49.482;7.716;2022-08-11T06:41:21;99424.06;;;25.96;43.91
11542;BME280;5827;49.482;7.716;2022-08-11T06:43:44;99422.84;;;25.84;44.60
11542;BME280;5827;49.482;7.716;2022-08-11T06:45:52;99426.91;;;26.17;44.06
11542;BME280;5827;49.482;7.716;2022-08-11T06:47:56;99427.88;;;26.42;43.79
11542;BME280;5827;49.482;7.716;2022-08-11T06:50:00;99430.09;;;26.78;42.64
11542;BME280;5827;49.482;7.716;2022-08-11T06:52:28;99434.25;;;26.84;41.63
11542;BME280;5827;49.482;7.716;2022-08-11T06:54:32;99445.53;;;26.91;40.13
11542;BME280;5827;49.482;7.716;2022-08-11T06:56:37;99443.59;;;26.92;39.47
11542;BME280;5827;49.482;7.716;2022-08-11T06:58:59;99441.69;;;27.25;40.36
11542;BME280;5827;49.482;7.716;2022-08-11T07:01:28;99436.63;;;27.48;39.68
11542;BME280;5827;49.482;7.716;2022-08-11T07:03:38;99445.66;;;27.36;39.71
11542;BME280;5827;49.482;7.716;2022-08-11T07:05:44;99440.31;;;27.52;40.30
11542;BME280;5827;49.482;7.716;2022-08-11T07:08:31;99436.66;;;28.06;39.72
11542;BME280;5827;49.482;7.716;2022-08-11T07:11:09;99443.44;;;28.33;39.32
11542;BME280;5827;49.482;7.716;2022-08-11T07:13:32;99435.16;;;28.57;39.52
11542;BME280;5827;49.482;7.716;2022-08-11T07:15:55;99432.44;;;28.85;37.97
11542;BME280;5827;49.482;7.716;2022-08-11T07:18:00;99441.66;;;29.02;38.45
11542;BME280;5827;49.482;7.716;2022-08-11T07:20:21;99433.50;;;28.81;37.79
11542;BME280;5827;49.482;7.716;2022-08-11T07:22:42;99443.88;;;29.24;37.02
11542;BME280;5827;49.482;7.716;2022-08-11T07:25:09;99452.06;;;29.36;37.83
11542;BME280;5827;49.482;7.716;2022-08-11T07:27:36;99449.13;;;29.57;35.37
11542;BME280;5827;49.482;7.716;2022-08-11T07:30:03;99446.31;;;29.70;36.74
11542;BME280;5827;49.482;7.716;2022-08-11T07:32:13;99448.69;;;29.55;36.04
11542;BME280;5827;49.482;7.716;2022-08-11T07:34:18;99452.13;;;29.52;36.74
11542;BME280;5827;49.482;7.716;2022-08-11T07:36:21;99448.19;;;29.37;35.59
11542;BME280;5827;49.482;7.716;2022-08-11T07:38:29;99447.56;;;29.16;36.00
11542;BME280;5827;49.482;7.716;2022-08-11T07:40:44;99441.41;;;28.95;36.83
11542;BME280;5827;49.482;7.716;2022-08-11T07:42:46;99447.69;;;29.20;36.75
11542;BME280;5827;49.482;7.716;2022-08-11T07:44:48;99451.25;;;29.20;35.42
11542;BME280;5827;49.482;7.716;2022-08-11T07:47:09;99439.81;;;28.81;36.43
11542;BME280;5827;49.482;7.716;2022-08-11T07:49:31;99445.47;;;29.25;36.68
11542;BME280;5827;49.482;7.716;2022-08-11T07:51:52;99441.16;;;29.12;37.47
11542;BME280;5827;49.482;7.716;2022-08-11T07:54:11;99437.41;;;28.92;36.83
11542;BME280;5827;49.482;7.716;2022-08-11T07:56:15;99432.94;;;28.75;36.66
11542;BME280;5827;49.482;7.716;2022-08-11T07:58:20;99425.34;;;28.97;36.60
11542;BME280;5827;49.482;7.716;2022-08-11T08:00:42;99430.56;;;28.61;36.58
11542;BME280;5827;49.482;7.716;2022-08-11T08:03:05;99430.53;;;28.74;36.46
11542;BME280;5827;49.482;7.716;2022-08-11T08:05:25;99421.88;;;28.87;37.01
11542;BME280;5827;49.482;7.716;2022-08-11T08:07:44;99435.22;;;28.85;36.41
11542;BME280;5827;49.482;7.716;2022-08-11T08:10:05;99427.31;;;28.96;37.16
11542;BME280;5827;49.482;7.716;2022-08-11T08:12:25;99433.25;;;29.26;36.07
11542;BME280;5827;49.482;7.716;2022-08-11T08:14:44;99434.66;;;29.48;36.21
11542;BME280;5827;49.482;7.716;2022-08-11T08:17:03;99434.16;;;29.30;36.16
11542;BME280;5827;49.482;7.716;2022-08-11T08:19:24;99436.38;;;29.25;35.36
11542;BME280;5827;49.482;7.716;2022-08-11T08:21:26;99439.72;;;29.18;36.22
11542;BME280;5827;49.482;7.716;2022-08-11T08:23:27;99433.56;;;29.37;35.75
11542;BME280;5827;49.482;7.716;2022-08-11T08:25:34;99427.41;;;29.28;35.87
11542;BME280;5827;49.482;7.716;2022-08-11T08:27:36;99435.31;;;29.57;35.82
11542;BME280;5827;49.482;7.716;2022-08-11T08:29:40;99427.31;;;28.96;35.89
11542;BME280;5827;49.482;7.716;2022-08-11T08:32:02;99435.22;;;28.98;36.65
11542;BME280;5827;49.482;7.716;2022-08-11T08:34:04;99428.03;;;29.09;36.54
11542;BME280;5827;49.482;7.716;2022-08-11T08:36:08;99426.84;;;28.82;35.68
11542;BME280;5827;49.482;7.716;2022-08-11T08:38:14;99428.88;;;29.09;36.04
11542;BME280;5827;49.482;7.716;2022-08-11T08:40:16;99435.66;;;29.00;35.68
11542;BME280;5827;49.482;7.716;2022-08-11T08:42:20;99438.47;;;28.75;35.63
11542;BME280;5827;49.482;7.716;2022-08-11T08:44:24;99433.25;;;28.86;35.44
11542;BME280;5827;49.482;7.716;2022-08-11T08:46:31;99431.22;;;28.83;35.49
11542;BME280;5827;49.482;7.716;2022-08-11T08:48:35;99429.25;;;28.83;35.90
11542;BME280;5827;49.482;7.716;2022-08-11T08:50:42;99431.03;;;28.51;36.06
11542;BME280;5827;49.482;7.716;2022-08-11T08:53:06;99430.84;;;28.97;35.82
11542;BME280;5827;49.482;7.716;2022-08-11T08:55:11;99427.84;;;29.30;36.00
11542;BME280;5827;49.482;7.716;2022-08-11T08:57:17;99424.66;;;29.44;36.24
11542;BME280;5827;49.482;7.716;2022-08-11T08:59:21;99429.63;;;29.66;35.38
11542;BME280;5827;49.482;7.716;2022-08-11T09:01:25;99432.06;;;29.83;36.08
11542;BME280;5827;49.482;7.716;2022-08-11T09:03:28;99434.53;;;29.73;34.68
11542;BME280;5827;49.482;7.716;2022-08-11T09:05:31;99434.63;;;29.76;34.85
11542;BME280;5827;49.482;7.716;2022-08-11T09:07:33;99436.75;;;29.67;34.14
11542;BME280;5827;49.482;7.716;2022-08-11T09:09:38;99433.47;;;29.33;34.60
11542;BME280;5827;49.482;7.716;2022-08-11T09:11:42;99430.59;;;29.58;34.63
11542;BME280;5827;49.482;7.716;2022-08-11T09:13:53;99432.69;;;29.49;35.01
11542;BME280;5827;49.482;7.716;2022-08-11T09:15:55;99435.25;;;29.70;35.02
11542;BME280;5827;49.482;7.716;2022-08-11T09:18:00;99431.50;;;29.62;35.07
11542;BME280;5827;49.482;7.716;2022-08-11T09:20:07;99436.59;;;29.92;34.45
11542;BME280;5827;49.482;7.716;2022-08-11T09:22:09;99429.22;;;30.11;33.59
11542;BME280;5827;49.482;7.716;2022-08-11T09:24:29;99430.63;;;30.05;34.11
11542;BME280;5827;49.482;7.716;2022-08-11T09:26:51;99439.81;;;29.94;33.86
11542;BME280;5827;49.482;7.716;2022-08-11T09:29:02;99429.06;;;30.20;34.24
11542;BME280;5827;49.482;7.716;2022-08-11T09:31:05;99430.19;;;29.44;34.36
11542;BME280;5827;49.482;7.716;2022-08-11T09:33:09;99435.31;;;29.57;34.21
11542;BME280;5827;49.482;7.716;2022-08-11T09:35:12;99425.75;;;29.83;34.56
11542;BME280;5827;49.482;7.716;2022-08-11T09:37:17;99432.34;;;29.78;34.42
11542;BME280;5827;49.482;7.716;2022-08-11T09:39:39;99421.03;;;30.15;34.29
11542;BME280;5827;49.482;7.716;2022-08-11T09:42:02;99430.72;;;30.09;34.04
11542;BME280;5827;49.482;7.716;2022-08-11T09:44:04;99432.97;;;29.87;33.21
11542;BME280;5827;49.482;7.716;2022-08-11T09:46:26;99434.09;;;29.86;33.52
11542;BME280;5827;49.482;7.716;2022-08-11T09:48:29;99425.63;;;29.95;33.05
11542;BME280;5827;49.482;7.716;2022-08-11T09:50:33;99437.13;;;29.81;32.73
11542;BME280;5827;49.482;7.716;2022-08-11T09:52:37;99424.22;;;30.01;33.29
11542;BME280;5827;49.482;7.716;2022-08-11T09:54:40;99424.94;;;29.98;33.46
11542;BME280;5827;49.482;7.716;2022-08-11T09:56:42;99420.66;;;30.17;32.69
11542;BME280;5827;49.482;7.716;2022-08-11T09:59:04;99418.16;;;29.96;33.44
11542;BME280;5827;49.482;7.716;2022-08-11T10:01:06;99422.16;;;29.67;34.41
11542;BME280;5827;49.482;7.716;2022-08-11T10:03:27;99426.69;;;29.91;33.62
11542;BME280;5827;49.482;7.716;2022-08-11T10:05:29;99420.38;;;30.06;32.61
11542;BME280;5827;49.482;7.716;2022-08-11T10:07:50;99421.44;;;29.70;32.64
11542;BME280;5827;49.482;7.716;2022-08-11T10:09:58;99422.13;;;29.51;33.33
11542;BME280;5827;49.482;7.716;2022-08-11T10:12:02;99419.38;;;29.67;33.75
11542;BME280;5827;49.482;7.716;2022-08-11T10:14:08;99412.16;;;29.62;33.55
11542;BME280;5827;49.482;7.716;2022-08-11T10:16:31;99409.66;;;29.57;33.64
11542;BME280;5827;49.482;7.716;2022-08-11T10:18:40;99410.75;;;30.00;33.44
11542;BME280;5827;49.482;7.716;2022-08-11T10:20:44;99413.59;;;30.03;34.35
11542;BME280;5827;49.482;7.716;2022-08-11T10:22:49;99412.00;;;30.18;34.03
11542;BME280;5827;49.482;7.716;2022-08-11T10:25:09;99416.00;;;30.05;32.92
11542;BME280;5827;49.482;7.716;2022-08-11T10:27:29;99411.72;;;30.23;33.73
11542;BME280;5827;49.482;7.716;2022-08-11T10:29:38;99415.56;;;30.03;33.35
11542;BME280;5827;49.482;7.716;2022-08-11T10:31:59;99414.59;;;29.79;33.85
11542;BME280;5827;49.482;7.716;2022-08-11T10:34:19;99399.41;;;30.05;33.77
11542;BME280;5827;49.482;7.716;2022-08-11T10:36:24;99391.88;;;30.02;33.38
11542;BME280;5827;49.482;7.716;2022-08-11T10:38:27;99393.63;;;30.10;33.83
11542;BME280;5827;49.482;7.716;2022-08-11T10:40:30;99380.44;;;30.54;34.34
11542;BME280;5827;49.482;7.716;2022-08-11T10:42:34;99386.69;;;30.51;32.78
11542;BME280;5827;49.482;7.716;2022-08-11T10:44:56;99397.25;;;30.81;32.37
11542;BME280;5827;49.482;7.716;2022-08-11T10:46:59;99385.66;;;30.40;32.13
11542;BME280;5827;49.482;7.716;2022-08-11T10:49:20;99386.19;;;30.65;33.14
11542;BME280;5827;49.482;7.716;2022-08-11T10:51:23;99393.19;;;30.75;33.15
11542;BME280;5827;49.482;7.716;2022-08-11T10:53:44;99393.91;;;30.56;32.63
11542;BME280;5827;49.482;7.716;2022-08-11T10:56:05;99392.66;;;30.34;32.51
11542;BME280;5827;49.482;7.716;2022-08-11T10:58:26;99382.38;;;30.34;33.05
11542;BME280;5827;49.482;7.716;2022-08-11T11:00:51;99377.97;;;30.49;33.17
11542;BME280;5827;49.482;7.716;2022-08-11T11:02:56;99381.41;;;30.62;33.43
11542;BME280;5827;49.482;7.716;2022-08-11T11:05:03;99373.56;;;30.29;32.94
11542;BME280;5827;49.482;7.716;2022-08-11T11:07:15;99373.72;;;30.36;33.30
11542;BME280;5827;49.482;7.716;2022-08-11T11:09:23;99368.88;;;30.49;33.25
11542;BME280;5827;49.482;7.716;2022-08-11T11:11:32;99366.97;;;30.53;33.14
11542;BME280;5827;49.482;7.716;2022-08-11T11:13:53;99364.22;;;30.53;32.85
11542;BME280;5827;49.482;7.716;2022-08-11T11:16:13;99358.38;;;30.93;33.14
11542;BME280;5827;49.482;7.716;2022-08-11T11:18:38;99358.53;;;31.23;31.95
11542;BME280;5827;49.482;7.716;2022-08-11T11:20:44;99354.28;;;31.49;31.73
11542;BME280;5827;49.482;7.716;2022-08-11T11:22:48;99362.16;;;31.70;31.88
11542;BME280;5827;49.482;7.716;2022-08-11T11:24:57;99355.69;;;32.08;31.89
11542;BME280;5827;49.482;7.716;2022-08-11T11:27:06;99355.28;;;31.83;31.52
11542;BME280;5827;49.482;7.716;2022-08-11T11:29:39;99352.41;;;31.79;31.47
11542;BME280;5827;49.482;7.716;2022-08-11T11:31:55;99351.19;;;32.00;31.61
11542;BME280;5827;49.482;7.716;2022-08-11T11:34:14;99364.66;;;31.32;30.70
11542;BME280;5827;49.482;7.716;2022-08-11T11:36:24;99355.06;;;31.72;30.93
11542;BME280;5827;49.482;7.716;2022-08-11T11:38:27;99349.69;;;32.32;30.07
11542;BME280;5827;49.482;7.716;2022-08-11T11:40:30;99351.28;;;32.33;30.75
11542;BME280;5827;49.482;7.716;2022-08-11T11:42:32;99353.81;;;32.42;30.13
11542;BME280;5827;49.482;7.716;2022-08-11T11:44:35;99351.59;;;32.28;30.02
11542;BME280;5827;49.482;7.716;2022-08-11T11:46:38;99348.41;;;32.00;30.44
11542;BME280;5827;49.482;7.716;2022-08-11T11:48:42;99346.06;;;32.28;29.83
11542;BME280;5827;49.482;7.716;2022-08-11T11:50:44;99344.53;;;32.31;30.42
11542;BME280;5827;49.482;7.716;2022-08-11T11:52:45;99346.03;;;31.52;30.71
11542;BME280;5827;49.482;7.716;2022-08-11T11:54:49;99334.28;;;32.08;30.49
11542;BME280;5827;49.482;7.716;2022-08-11T11:56:54;99333.31;;;31.97;30.64
11542;BME280;5827;49.482;7.716;2022-08-11T11:58:56;99339.06;;;32.11;30.44
11542;BME280;5827;49.482;7.716;2022-08-11T12:01:16;99333.22;;;31.90;30.52
11542;BME280;5827;49.482;7.716;2022-08-11T12:03:19;99331.44;;;32.31;29.90
11542;BME280;5827;49.482;7.716;2022-08-11T12:05:23;99320.25;;;32.24;29.72
11542;BME280;5827;49.482;7.716;2022-08-11T12:07:25;99329.00;;;32.26;29.12
11542;BME280;5827;49.482;7.716;2022-08-11T12:09:45;99322.69;;;31.76;29.17
11542;BME280;5827;49.482;7.716;2022-08-11T12:11:48;99325.47;;;31.11;29.71
11542;BME280;5827;49.482;7.716;2022-08-11T12:14:09;99325.06;;;31.78;29.29
11542;BME280;5827;49.482;7.716;2022-08-11T12:16:12;99328.16;;;31.96;29.26
11542;BME280;5827;49.482;7.716;2022-08-11T12:18:15;99321.09;;;32.02;29.04
11542;BME280;5827;49.482;7.716;2022-08-11T12:20:17;99323.78;;;31.95;28.44
11542;BME280;5827;49.482;7.716;2022-08-11T12:22:22;99321.41;;;32.23;27.95